createdAt,value
2022-12-09T00:01:15.029Z,19.90
2022-12-09T00:03:42.704Z,20.80
2022-12-09T00:06:21.295Z,18.70
2022-12-09T00:08:48.626Z,19.30
2022-12-09T00:11:16.481Z,18.30
2022-12-09T00:13:43.657Z,18.67
2022-12-09T00:18:41.973Z,18.38
2022-12-09T00:21:16.009Z,17.67
2022-12-09T00:23:43.029Z,17.77
2022-12-09T00:26:10.632Z,16.73
2022-12-09T00:28:38.188Z,16.85
2022-12-09T00:31:06.437Z,17.27
2022-12-09T00:33:35.261Z,16.85
2022-12-09T00:36:29.047Z,17.03
2022-12-09T00:38:57.407Z,15.80
2022-12-09T00:41:24.518Z,16.65
2022-12-09T00:43:51.991Z,15.88
2022-12-09T00:46:19.113Z,15.85
2022-12-09T00:48:46.571Z,15.57
2022-12-09T00:51:16.626Z,15.27
2022-12-09T00:53:44.465Z,14.50
2022-12-09T00:56:11.813Z,15.18
2022-12-09T00:58:38.809Z,14.18
2022-12-09T01:01:06.137Z,14.55
2022-12-09T01:03:33.752Z,14.07
2022-12-09T01:06:01.374Z,14.05
2022-12-09T01:08:28.547Z,14.02
2022-12-09T01:10:55.627Z,13.00
2022-12-09T01:13:22.809Z,13.18
2022-12-09T01:15:50.125Z,14.18
2022-12-09T01:18:17.303Z,12.52
2022-12-09T01:20:44.308Z,13.80
2022-12-09T01:23:11.466Z,13.90
2022-12-09T01:25:39.393Z,14.00
2022-12-09T01:28:06.669Z,12.90
2022-12-09T01:30:33.827Z,12.10
2022-12-09T01:33:01.077Z,13.32
2022-12-09T01:35:29.386Z,12.30
2022-12-09T01:37:56.366Z,12.85
2022-12-09T01:40:23.718Z,12.57
2022-12-09T01:42:51.569Z,12.40
2022-12-09T01:45:30.598Z,11.90
2022-12-09T01:48:04.462Z,12.30
2022-12-09T01:50:32.064Z,12.45
2022-12-09T01:52:59.319Z,11.13
2022-12-09T01:55:26.532Z,11.35
2022-12-09T01:57:53.620Z,11.35
2022-12-09T02:00:20.974Z,11.25
2022-12-09T02:02:49.643Z,10.60
2022-12-09T02:05:16.965Z,11.00
2022-12-09T02:07:44.344Z,9.90
2022-12-09T02:10:14.487Z,10.40
2022-12-09T02:13:07.874Z,9.77
2022-12-09T02:15:45.335Z,10.45
2022-12-09T02:18:37.347Z,10.05
2022-12-09T02:21:08.382Z,10.02
2022-12-09T02:23:50.985Z,9.75
2022-12-09T02:26:51.853Z,9.90
2022-12-09T02:29:24.929Z,9.07
2022-12-09T02:31:55.048Z,9.75
2022-12-09T02:34:23.952Z,9.43
2022-12-09T02:37:05.003Z,9.03
2022-12-09T02:39:53.546Z,9.18
2022-12-09T02:44:53.282Z,8.82
2022-12-09T02:47:26.590Z,8.95
2022-12-09T02:49:58.852Z,9.73
2022-12-09T02:52:26.384Z,9.30
2022-12-09T02:54:54.152Z,8.88
2022-12-09T02:57:26.961Z,8.48
2022-12-09T02:59:53.895Z,8.00
2022-12-09T03:02:29.016Z,8.65
2022-12-09T03:05:26.236Z,7.80
2022-12-09T03:08:03.477Z,8.38
2022-12-09T03:10:41.217Z,8.02
2022-12-09T03:13:16.425Z,8.30
2022-12-09T03:15:49.928Z,8.23
2022-12-09T03:18:18.724Z,8.23
2022-12-09T03:20:46.672Z,8.00
2022-12-09T03:23:16.215Z,7.93
2022-12-09T03:25:49.489Z,7.90
2022-12-09T03:28:30.714Z,7.65
2022-12-09T03:31:00.434Z,7.50
2022-12-09T03:35:57.715Z,7.30
2022-12-09T03:38:28.828Z,7.15
2022-12-09T03:41:04.143Z,7.35
2022-12-09T03:43:35.402Z,7.75
2022-12-09T03:46:02.641Z,6.88
2022-12-09T03:48:29.891Z,7.63
2022-12-09T03:51:10.554Z,7.90
2022-12-09T03:54:01.336Z,7.05
2022-12-09T03:56:32.873Z,7.47
2022-12-09T03:59:01.320Z,7.43
2022-12-09T04:03:58.247Z,7.00
2022-12-09T04:06:25.334Z,7.03
2022-12-09T04:08:55.351Z,6.78
2022-12-09T04:11:24.969Z,7.07
2022-12-09T04:13:51.868Z,6.82
2022-12-09T04:16:18.891Z,6.80
2022-12-09T04:18:45.914Z,6.63
2022-12-09T04:21:13.941Z,6.65
2022-12-09T04:23:43.170Z,6.25
2022-12-09T04:26:15.615Z,6.68
2022-12-09T04:28:42.688Z,6.50
2022-12-09T04:31:14.603Z,6.70
2022-12-09T04:33:41.906Z,6.05
2022-12-09T04:36:11.741Z,6.70
2022-12-09T04:41:05.836Z,5.85
2022-12-09T04:43:33.015Z,6.15
2022-12-09T04:46:05.859Z,5.80
2022-12-09T04:51:00.733Z,6.63
2022-12-09T04:53:28.060Z,6.55
2022-12-09T04:56:02.907Z,6.13
2022-12-09T04:58:30.037Z,5.65
2022-12-09T05:00:57.657Z,5.82
2022-12-09T05:03:25.472Z,5.57
2022-12-09T05:05:52.647Z,6.15
2022-12-09T05:08:19.966Z,5.50
2022-12-09T05:10:48.550Z,5.47
2022-12-09T05:13:15.688Z,5.75
2022-12-09T05:15:42.900Z,5.85
2022-12-09T05:18:10.378Z,5.90
2022-12-09T05:20:40.105Z,5.45
2022-12-09T05:23:09.831Z,5.63
2022-12-09T05:25:37.381Z,6.03
2022-12-09T05:28:05.152Z,5.65
2022-12-09T05:30:32.445Z,4.95
2022-12-09T05:32:59.898Z,5.80
2022-12-09T05:35:26.880Z,5.03
2022-12-09T05:37:53.861Z,4.55
2022-12-09T05:40:21.118Z,4.78
2022-12-09T05:42:48.530Z,4.97
2022-12-09T05:45:15.595Z,4.45
2022-12-09T05:47:42.741Z,5.05
2022-12-09T05:50:10.848Z,4.75
2022-12-09T05:52:39.187Z,4.70
2022-12-09T05:55:08.119Z,5.03
2022-12-09T05:57:35.849Z,4.60
2022-12-09T06:00:05.547Z,4.80
2022-12-09T06:02:33.465Z,4.90
2022-12-09T06:05:01.275Z,5.00
2022-12-09T06:07:28.611Z,4.45
2022-12-09T06:09:55.789Z,4.38
2022-12-09T06:12:22.851Z,4.50
2022-12-09T06:14:49.920Z,4.80
2022-12-09T06:17:17.285Z,4.60
2022-12-09T06:19:44.641Z,4.35
2022-12-09T06:22:12.114Z,4.80
2022-12-09T06:24:39.365Z,4.03
2022-12-09T06:27:06.463Z,4.50
2022-12-09T06:29:33.703Z,4.10
2022-12-09T06:32:01.047Z,3.70
2022-12-09T06:34:29.931Z,4.18
2022-12-09T06:36:57.220Z,4.57
2022-12-09T06:39:24.602Z,4.30
2022-12-09T06:41:51.530Z,4.50
2022-12-09T06:44:23.542Z,4.40
2022-12-09T06:46:51.547Z,4.13
2022-12-09T06:49:19.119Z,4.30
2022-12-09T06:51:46.293Z,4.07
2022-12-09T06:54:13.463Z,4.28
2022-12-09T06:56:41.156Z,4.07
2022-12-09T06:59:09.363Z,3.95
2022-12-09T07:01:37.694Z,3.65
2022-12-09T07:04:06.177Z,4.07
2022-12-09T07:06:41.694Z,4.00
2022-12-09T07:09:08.917Z,47.55
2022-12-09T07:11:36.782Z,118.38
2022-12-09T07:14:04.438Z,82.35
2022-12-09T07:16:31.954Z,74.85
2022-12-09T07:18:59.492Z,71.47
2022-12-09T07:21:26.999Z,65.03
2022-12-09T07:23:54.709Z,60.35
2022-12-09T07:26:22.191Z,55.30
2022-12-09T07:28:50.558Z,52.47
2022-12-09T07:31:26.771Z,50.90
2022-12-09T07:33:56.395Z,46.47
2022-12-09T07:36:25.775Z,43.03
2022-12-09T07:38:57.198Z,39.53
2022-12-09T07:41:24.603Z,38.90
2022-12-09T07:43:52.323Z,37.53
2022-12-09T07:46:20.888Z,33.58
2022-12-09T07:48:49.072Z,33.13
2022-12-09T07:51:16.418Z,31.35
2022-12-09T07:53:43.809Z,30.77
2022-12-09T07:56:13.406Z,28.35
2022-12-09T07:58:41.057Z,27.13
2022-12-09T08:01:29.373Z,26.70
2022-12-09T08:03:56.848Z,25.30
2022-12-09T08:06:27.227Z,25.67
2022-12-09T08:08:55.320Z,23.63
2022-12-09T08:11:26.962Z,23.30
2022-12-09T08:14:10.610Z,22.55
2022-12-09T08:16:39.438Z,21.25
2022-12-09T08:19:07.061Z,20.67
2022-12-09T08:21:34.532Z,19.05
2022-12-09T08:24:04.119Z,19.77
2022-12-09T08:26:32.411Z,18.77
2022-12-09T08:28:59.967Z,18.45
2022-12-09T08:31:28.558Z,18.58
2022-12-09T08:33:56.749Z,17.95
2022-12-09T08:36:26.406Z,18.40
2022-12-09T08:38:54.499Z,16.58
2022-12-09T08:41:37.766Z,16.13
2022-12-09T08:44:09.603Z,15.70
2022-12-09T08:46:38.931Z,16.30
2022-12-09T08:49:08.330Z,15.18
2022-12-09T08:51:35.963Z,15.18
2022-12-09T08:54:03.560Z,15.60
2022-12-09T08:56:30.676Z,14.50
2022-12-09T08:59:28.879Z,22.45
2022-12-09T09:01:55.855Z,55.17
2022-12-09T09:04:24.076Z,50.03
2022-12-09T09:06:52.677Z,47.15
2022-12-09T09:09:20.735Z,44.28
2022-12-09T09:11:48.905Z,39.75
2022-12-09T09:14:16.675Z,38.22
2022-12-09T09:16:45.404Z,36.88
2022-12-09T09:19:21.892Z,37.10
2022-12-09T09:21:49.973Z,33.28
2022-12-09T09:24:19.034Z,32.03
2022-12-09T09:26:46.405Z,29.52
2022-12-09T09:29:15.166Z,29.60
2022-12-09T09:31:42.422Z,27.48
2022-12-09T09:34:11.168Z,26.52
2022-12-09T09:36:38.551Z,26.30
2022-12-09T09:39:06.050Z,25.65
2022-12-09T09:41:51.823Z,23.35
2022-12-09T09:44:47.028Z,22.85
2022-12-09T09:47:38.063Z,21.73
2022-12-09T09:50:31.180Z,20.33
2022-12-09T09:52:58.685Z,20.63
2022-12-09T09:55:44.007Z,23.88
2022-12-09T10:01:18.908Z,24.67
2022-12-09T10:03:58.765Z,24.38
2022-12-09T10:06:44.431Z,25.05
2022-12-09T10:09:24.844Z,46.70
2022-12-09T10:12:24.861Z,58.28
2022-12-09T10:14:59.100Z,60.97
2022-12-09T10:17:32.333Z,54.72
2022-12-09T10:20:12.595Z,54.83
2022-12-09T10:22:47.379Z,50.70
2022-12-09T10:25:24.897Z,47.83
2022-12-09T10:28:25.408Z,44.10
2022-12-09T10:30:54.546Z,38.53
2022-12-09T10:33:29.605Z,34.13
2022-12-09T10:35:57.033Z,31.17
2022-12-09T10:38:25.490Z,29.00
2022-12-09T10:41:02.103Z,26.98
2022-12-09T10:46:18.493Z,24.40
2022-12-09T10:48:49.757Z,23.70
2022-12-09T10:51:23.143Z,22.67
2022-12-09T10:53:58.810Z,23.05
2022-12-09T10:56:30.031Z,22.80
2022-12-09T10:59:26.533Z,23.00
2022-12-09T11:02:01.580Z,22.98
2022-12-09T11:04:41.772Z,21.23
2022-12-09T11:07:14.952Z,20.42
2022-12-09T11:09:56.473Z,19.40
2022-12-09T11:12:38.168Z,20.58
2022-12-09T11:15:29.737Z,20.38
2022-12-09T11:18:14.325Z,19.55
2022-12-09T11:20:42.007Z,18.42
2022-12-09T11:23:12.376Z,17.70
2022-12-09T11:25:52.429Z,18.35
2022-12-09T11:28:19.598Z,19.35
2022-12-09T11:31:27.974Z,48.58
2022-12-09T11:34:00.345Z,60.30
2022-12-09T11:36:32.659Z,56.33
2022-12-09T11:39:22.220Z,51.08
2022-12-09T11:42:17.041Z,46.70
2022-12-09T11:44:56.923Z,42.15
2022-12-09T11:48:13.488Z,39.50
2022-12-09T11:50:31.776Z,36.70
2022-12-09T11:53:27.291Z,32.72
2022-12-09T11:56:04.225Z,31.63
2022-12-09T11:58:36.162Z,29.00
2022-12-09T12:01:12.426Z,29.33
2022-12-09T12:03:49.672Z,28.60
2022-12-09T12:06:42.627Z,27.33
2022-12-09T12:09:14.390Z,27.95
2022-12-09T12:11:48.816Z,27.92
2022-12-09T12:14:19.568Z,27.35
2022-12-09T12:16:49.485Z,27.80
2022-12-09T12:19:32.143Z,26.40
2022-12-09T12:22:17.559Z,25.70
2022-12-09T12:24:59.561Z,23.45
2022-12-09T12:28:01.284Z,25.25
2022-12-09T12:30:45.240Z,23.50
2022-12-09T12:36:55.094Z,49.13
2022-12-09T12:39:40.984Z,46.30
2022-12-09T12:43:06.030Z,42.33
2022-12-09T12:45:59.076Z,48.42
2022-12-09T12:49:10.685Z,46.45
2022-12-09T12:52:05.186Z,43.45
2022-12-09T12:54:56.995Z,41.72
2022-12-09T12:57:52.645Z,40.17
2022-12-09T13:00:21.907Z,37.45
2022-12-09T13:03:35.364Z,35.45
2022-12-09T13:06:02.557Z,34.70
2022-12-09T13:08:41.133Z,34.40
2022-12-09T13:11:16.316Z,31.35
2022-12-09T13:13:47.025Z,29.98
2022-12-09T13:16:20.354Z,28.35
2022-12-09T13:18:50.975Z,26.45
2022-12-09T13:21:18.238Z,25.20
2022-12-09T13:23:57.225Z,24.77
2022-12-09T13:26:42.291Z,23.85
2022-12-09T13:29:48.068Z,23.70
2022-12-09T13:32:36.362Z,23.88
2022-12-09T13:35:43.761Z,23.17
2022-12-09T13:38:39.768Z,21.88
2022-12-09T13:41:51.642Z,20.38
2022-12-09T13:44:19.186Z,20.88
2022-12-09T13:46:46.112Z,19.73
2022-12-09T13:49:24.785Z,20.15
2022-12-09T13:51:53.859Z,20.17
2022-12-09T13:54:26.037Z,20.70
2022-12-09T13:57:31.891Z,20.60
2022-12-09T14:00:02.014Z,18.90
2022-12-09T14:02:28.860Z,19.33
2022-12-09T14:05:11.132Z,19.25
2022-12-09T14:08:16.495Z,19.00
2022-12-09T14:10:46.459Z,34.55
2022-12-09T14:13:28.439Z,41.58
2022-12-09T14:16:29.300Z,72.10
2022-12-09T14:18:57.250Z,70.95
2022-12-09T14:21:27.262Z,68.65
2022-12-09T14:24:09.622Z,63.17
2022-12-09T14:26:47.903Z,56.72
2022-12-09T14:29:46.938Z,58.03
2022-12-09T14:32:21.924Z,50.72
2022-12-09T14:35:03.006Z,44.13
2022-12-09T14:37:57.809Z,44.55
2022-12-09T14:40:43.121Z,42.08
2022-12-09T14:43:18.850Z,39.70
2022-12-09T14:45:49.893Z,37.47
2022-12-09T14:48:21.864Z,35.50
2022-12-09T14:50:58.548Z,33.80
2022-12-09T14:53:35.583Z,32.92
2022-12-09T14:56:03.310Z,31.90
2022-12-09T14:58:30.538Z,30.70
2022-12-09T15:01:06.366Z,30.98
2022-12-09T15:03:39.432Z,28.90
2022-12-09T15:06:17.144Z,28.60
2022-12-09T15:08:44.212Z,27.98
2022-12-09T15:11:18.018Z,28.00
2022-12-09T15:13:47.757Z,26.98
2022-12-09T15:16:18.016Z,28.83
2022-12-09T15:18:45.862Z,28.30
2022-12-09T15:21:27.488Z,27.58
2022-12-09T15:23:54.631Z,27.83
2022-12-09T15:26:22.943Z,26.23
2022-12-09T15:28:51.896Z,25.92
2022-12-09T15:31:21.643Z,25.75
2022-12-09T15:33:53.919Z,24.50
2022-12-09T15:36:23.812Z,26.55
2022-12-09T15:38:58.969Z,26.33
2022-12-09T15:42:08.565Z,25.35
2022-12-09T15:47:23.985Z,18.25
2022-12-09T15:50:00.991Z,17.33
2022-12-09T15:52:37.573Z,17.95
2022-12-09T15:55:06.997Z,17.02
2022-12-09T15:57:41.660Z,17.67
2022-12-09T16:00:09.354Z,17.30
2022-12-09T16:02:39.223Z,17.73
2022-12-09T16:05:08.599Z,17.23
2022-12-09T16:07:35.676Z,17.15
2022-12-09T16:10:13.061Z,16.52
2022-12-09T16:12:41.534Z,17.10
2022-12-09T16:15:11.071Z,16.52
2022-12-09T16:20:31.162Z,15.82
2022-12-09T16:25:27.678Z,17.55
2022-12-09T16:28:00.180Z,15.95
2022-12-09T16:30:29.665Z,16.17
2022-12-09T16:35:24.380Z,15.50
2022-12-09T16:37:57.568Z,14.40
2022-12-09T16:40:24.606Z,14.82
2022-12-09T16:43:13.910Z,14.63
2022-12-09T16:45:41.016Z,14.57
2022-12-09T16:48:09.738Z,14.68
2022-12-09T16:50:59.455Z,14.63
2022-12-09T16:53:29.979Z,14.38
2022-12-09T16:56:02.178Z,13.80
2022-12-09T16:58:30.708Z,13.43
2022-12-09T17:00:58.581Z,14.23
2022-12-09T17:03:46.375Z,14.00
2022-12-09T17:06:18.210Z,14.52
2022-12-09T17:08:45.196Z,31.02
2022-12-09T17:11:13.131Z,47.90
2022-12-09T17:13:40.063Z,53.17
2022-12-09T17:16:07.561Z,50.67
2022-12-09T17:18:35.143Z,46.40
2022-12-09T17:21:06.256Z,42.53
2022-12-09T17:23:39.324Z,38.20
2022-12-09T17:26:14.212Z,37.33
2022-12-09T17:28:41.779Z,33.97
2022-12-09T17:31:10.361Z,32.05
2022-12-09T17:33:37.547Z,29.17
2022-12-09T17:36:05.544Z,29.02
2022-12-09T17:38:32.529Z,28.33
2022-12-09T17:41:07.776Z,26.52
2022-12-09T17:43:35.319Z,24.90
2022-12-09T17:46:03.776Z,24.92
2022-12-09T17:48:32.074Z,24.48
2022-12-09T17:50:59.286Z,23.42
2022-12-09T17:53:26.160Z,22.15
2022-12-09T17:55:53.124Z,21.17
2022-12-09T17:58:20.056Z,20.58
2022-12-09T18:00:47.986Z,20.67
2022-12-09T18:03:27.425Z,19.98
2022-12-09T18:06:02.104Z,19.40
2022-12-09T18:08:30.041Z,18.88
2022-12-09T18:10:56.988Z,19.05
2022-12-09T18:13:23.885Z,18.13
2022-12-09T18:15:54.216Z,17.90
2022-12-09T18:18:21.513Z,16.63
2022-12-09T18:20:48.371Z,17.17
2022-12-09T18:23:15.325Z,17.38
2022-12-09T18:25:42.562Z,17.17
2022-12-09T18:28:09.468Z,16.20
2022-12-09T18:30:38.373Z,16.58
2022-12-09T18:33:05.325Z,16.00
2022-12-09T18:35:32.400Z,16.35
2022-12-09T18:38:06.026Z,15.52
2022-12-09T18:41:01.078Z,16.45
2022-12-09T18:43:33.447Z,15.88
2022-12-09T18:46:08.781Z,14.27
2022-12-09T18:48:36.137Z,14.90
2022-12-09T18:51:03.200Z,13.35
2022-12-09T18:53:30.405Z,14.95
2022-12-09T18:55:57.330Z,15.65
2022-12-09T18:58:49.628Z,45.35
2022-12-09T19:01:20.130Z,59.75
2022-12-09T19:03:48.022Z,63.92
2022-12-09T19:06:30.287Z,56.05
2022-12-09T19:08:59.715Z,51.70
2022-12-09T19:11:29.225Z,49.83
2022-12-09T19:13:56.712Z,49.53
2022-12-09T19:16:24.741Z,47.97
2022-12-09T19:18:53.680Z,43.75
2022-12-09T19:21:22.027Z,40.58
2022-12-09T19:23:49.749Z,36.83
2022-12-09T19:26:16.589Z,36.88
2022-12-09T19:28:53.153Z,36.25
2022-12-09T19:31:21.354Z,33.88
2022-12-09T19:33:48.556Z,30.67
2022-12-09T19:36:15.523Z,31.05
2022-12-09T19:38:42.595Z,30.27
2022-12-09T19:41:09.535Z,30.17
2022-12-09T19:43:36.736Z,27.33
2022-12-09T19:46:08.901Z,28.92
2022-12-09T19:48:37.284Z,42.70
2022-12-09T19:51:09.522Z,37.60
2022-12-09T19:53:37.300Z,47.63
2022-12-09T19:56:07.185Z,44.75
2022-12-09T19:58:37.100Z,44.88
2022-12-09T20:01:22.014Z,44.05
2022-12-09T20:03:51.534Z,41.33
2022-12-09T20:06:20.384Z,39.20
2022-12-09T20:08:48.148Z,36.28
2022-12-09T20:11:23.604Z,39.92
2022-12-09T20:13:51.044Z,34.40
2022-12-09T20:16:20.532Z,34.00
2022-12-09T20:18:48.671Z,30.50
2022-12-09T20:21:17.692Z,30.38
2022-12-09T20:23:45.605Z,30.15
2022-12-09T20:26:17.393Z,29.35
2022-12-09T20:28:45.449Z,28.45
2022-12-09T20:31:15.080Z,27.75
2022-12-09T20:36:19.996Z,26.38
2022-12-09T20:38:52.199Z,25.42
2022-12-09T20:41:19.885Z,26.35
2022-12-09T20:43:48.279Z,52.38
2022-12-09T20:46:21.890Z,105.43
2022-12-09T20:48:49.226Z,118.05
2022-12-09T20:51:20.581Z,109.25
2022-12-09T20:53:48.502Z,110.63
2022-12-09T20:56:16.713Z,95.55
2022-12-09T20:58:44.444Z,93.53
2022-12-09T21:01:24.353Z,84.72
2022-12-09T21:03:52.082Z,80.53
2022-12-09T21:06:21.013Z,78.03
2022-12-09T21:08:48.286Z,68.55
2022-12-09T21:11:20.605Z,68.30
2022-12-09T21:13:49.400Z,66.72
2022-12-09T21:16:20.165Z,63.47
2022-12-09T21:18:48.224Z,59.03
2022-12-09T21:21:15.836Z,60.58
2022-12-09T21:23:42.736Z,59.15
2022-12-09T21:26:13.707Z,56.95
2022-12-09T21:28:41.112Z,58.67
2022-12-09T21:31:13.448Z,57.88
2022-12-09T21:33:41.745Z,60.28
2022-12-09T21:36:20.775Z,59.45
2022-12-09T21:38:47.656Z,59.33
2022-12-09T21:41:21.168Z,58.30
2022-12-09T21:43:48.147Z,57.38
2022-12-09T21:46:19.096Z,56.15
2022-12-09T21:48:52.184Z,51.50
2022-12-09T21:51:20.222Z,49.97
2022-12-09T21:53:48.092Z,57.05
2022-12-09T21:56:17.974Z,71.60
2022-12-09T21:58:46.312Z,74.57
2022-12-09T22:01:16.266Z,97.53
2022-12-09T22:03:43.496Z,93.47
2022-12-09T22:06:11.280Z,84.82
2022-12-09T22:08:39.493Z,89.03
2022-12-09T22:11:10.053Z,76.43
2022-12-09T22:13:39.498Z,69.60
2022-12-09T22:16:08.881Z,64.97
2022-12-09T22:18:36.324Z,62.65
2022-12-09T22:23:55.217Z,56.45
2022-12-09T22:26:23.268Z,54.53
2022-12-09T22:28:50.680Z,52.38
2022-12-09T22:31:26.843Z,53.03
2022-12-09T22:33:55.812Z,51.42
2022-12-09T22:36:23.320Z,50.20
2022-12-09T22:38:50.631Z,47.97
2022-12-09T22:41:20.527Z,47.50
2022-12-09T22:43:49.096Z,47.28
2022-12-09T22:46:19.033Z,46.95
2022-12-09T22:48:46.014Z,45.30
2022-12-09T22:51:18.592Z,42.97
2022-12-09T22:53:47.368Z,43.10
2022-12-09T22:56:14.260Z,42.60
2022-12-09T22:58:41.241Z,40.47
2022-12-09T23:01:13.226Z,40.70
2022-12-09T23:03:40.644Z,40.80
2022-12-09T23:06:08.216Z,40.95
2022-12-09T23:08:36.770Z,41.08
2022-12-09T23:11:06.928Z,62.22
2022-12-09T23:13:39.162Z,64.55
2022-12-09T23:16:13.237Z,75.13
2022-12-09T23:18:40.666Z,76.60
2022-12-09T23:21:22.518Z,75.93
2022-12-09T23:23:55.765Z,70.85
2022-12-09T23:26:25.756Z,70.43
2022-12-09T23:28:54.847Z,63.55
2022-12-09T23:31:24.516Z,63.13
2022-12-09T23:36:27.188Z,54.72
2022-12-09T23:38:54.849Z,72.72
2022-12-09T23:41:22.873Z,84.40
2022-12-09T23:43:50.524Z,103.60
2022-12-09T23:46:23.300Z,100.00
2022-12-09T23:48:51.363Z,93.43
2022-12-09T23:51:19.417Z,88.80
2022-12-09T23:53:48.049Z,85.15
2022-12-09T23:56:17.008Z,74.72
2022-12-09T23:58:43.891Z,69.15
